createdAt,value
2016-04-16T00:00:25.040Z,44.32
2016-04-16T00:01:25.105Z,44.61
2016-04-16T00:02:25.139Z,44.03
2016-04-16T00:03:25.205Z,44.23
2016-04-16T00:04:25.255Z,44.51
2016-04-16T00:05:25.304Z,44.23
2016-04-16T00:06:25.353Z,44.13
2016-04-16T00:07:25.402Z,44.23
2016-04-16T00:08:25.452Z,44.32
2016-04-16T00:09:25.502Z,44.32
2016-04-16T00:10:25.567Z,44.51
2016-04-16T00:11:25.601Z,44.03
2016-04-16T00:12:25.665Z,44.03
2016-04-16T00:13:25.715Z,44.03
2016-04-16T00:14:25.765Z,44.13
2016-04-16T00:15:25.831Z,44.03
2016-04-16T00:16:25.865Z,44.42
2016-04-16T00:17:25.915Z,44.03
2016-04-16T00:18:25.964Z,44.13
2016-04-16T00:19:26.013Z,44.03
2016-04-16T00:20:26.062Z,44.13
2016-04-16T00:21:26.112Z,43.84
2016-04-16T00:22:26.162Z,44.13
2016-04-16T00:23:26.228Z,44.03
2016-04-16T00:24:26.262Z,43.74
2016-04-16T00:25:26.326Z,44.13
2016-04-16T00:26:26.376Z,44.13
2016-04-16T00:27:26.425Z,44.13
2016-04-16T00:28:26.475Z,43.74
2016-04-16T00:29:26.525Z,43.65
2016-04-16T00:30:26.574Z,43.94
2016-04-16T00:31:26.624Z,43.65
2016-04-16T00:32:26.672Z,43.84
2016-04-16T00:33:26.722Z,43.46
2016-04-16T00:34:26.772Z,43.84
2016-04-16T00:35:26.822Z,43.46
2016-04-16T00:36:26.888Z,43.74
2016-04-16T00:37:26.936Z,43.36
2016-04-16T00:38:26.986Z,43.65
2016-04-16T00:39:27.035Z,43.27
2016-04-16T00:40:27.085Z,43.74
2016-04-16T00:41:27.135Z,43.55
2016-04-16T00:42:27.184Z,43.84
2016-04-16T00:43:27.234Z,43.65
2016-04-16T00:44:27.298Z,43.46
2016-04-16T00:45:27.348Z,43.46
2016-04-16T00:46:27.382Z,43.65
2016-04-16T00:47:27.432Z,43.46
2016-04-16T00:48:27.482Z,43.65
2016-04-16T00:49:27.548Z,43.27
2016-04-16T00:50:27.596Z,43.27
2016-04-16T00:51:27.646Z,43.27
2016-04-16T00:52:27.695Z,43.84
2016-04-16T00:53:27.746Z,43.36
2016-04-16T00:54:27.795Z,43.36
2016-04-16T00:55:27.845Z,43.84
2016-04-16T00:56:27.895Z,43.55
2016-04-16T00:57:27.944Z,43.74
2016-04-16T00:58:28.009Z,43.55
2016-04-16T00:59:28.058Z,43.46
2016-04-16T01:00:28.108Z,43.65
2016-04-16T01:01:28.157Z,43.55
2016-04-16T01:02:28.207Z,43.46
2016-04-16T01:03:28.256Z,43.74
2016-04-16T01:04:28.306Z,43.27
2016-04-16T01:05:28.356Z,43.36
2016-04-16T01:06:28.405Z,43.55
2016-04-16T01:07:28.471Z,43.55
2016-04-16T01:08:28.504Z,43.65
2016-04-16T01:09:28.554Z,43.55
2016-04-16T01:10:28.619Z,43.55
2016-04-16T01:11:28.652Z,43.94
2016-04-16T01:12:28.718Z,43.55
2016-04-16T01:13:28.767Z,43.65
2016-04-16T01:14:28.833Z,43.55
2016-04-16T01:15:28.867Z,43.55
2016-04-16T01:16:28.916Z,43.74
2016-04-16T01:17:28.981Z,43.65
2016-04-16T01:18:29.046Z,43.55
2016-04-16T01:19:29.065Z,43.74
2016-04-16T01:20:29.130Z,43.55
2016-04-16T01:21:29.180Z,43.55
2016-04-16T01:22:29.229Z,43.94
2016-04-16T01:23:29.279Z,43.65
2016-04-16T01:24:29.328Z,43.74
2016-04-16T01:25:29.378Z,43.84
2016-04-16T01:26:29.427Z,43.74
2016-04-16T01:27:29.477Z,44.13
2016-04-16T01:28:29.527Z,44.42
2016-04-16T01:29:29.576Z,44.51
2016-04-16T01:30:29.625Z,44.51
2016-04-16T01:31:29.691Z,44.42
2016-04-16T01:32:29.756Z,44.13
2016-04-16T01:33:29.774Z,44.42
2016-04-16T01:34:29.886Z,44.13
2016-04-16T01:35:29.921Z,44.23
2016-04-16T01:36:29.938Z,44.42
2016-04-16T01:37:29.988Z,44.13
2016-04-16T01:38:30.069Z,44.23
2016-04-16T01:39:30.118Z,44.13
2016-04-16T01:40:30.184Z,44.13
2016-04-16T01:41:30.202Z,44.13
2016-04-16T01:42:30.267Z,44.42
2016-04-16T01:43:30.317Z,44.32
2016-04-16T01:44:30.366Z,45
2016-04-16T01:45:30.401Z,44.32
2016-04-16T01:46:30.451Z,44.51
2016-04-16T01:47:30.500Z,44.42
2016-04-16T01:48:30.549Z,44.61
2016-04-16T01:49:30.599Z,44.61
2016-04-16T01:50:30.648Z,44.7
2016-04-16T01:51:30.698Z,45
2016-04-16T01:52:30.747Z,44.8
2016-04-16T01:53:30.797Z,45
2016-04-16T01:54:30.847Z,45
2016-04-16T01:55:30.896Z,45.18
2016-04-16T01:56:30.962Z,45.18
2016-04-16T01:57:31.011Z,45
2016-04-16T01:58:31.061Z,45
2016-04-16T01:59:31.110Z,45.09
2016-04-16T02:00:31.159Z,44.9
2016-04-16T02:01:31.208Z,45.09
2016-04-16T02:02:31.258Z,45
2016-04-16T02:03:31.312Z,45.28
2016-04-16T02:04:31.377Z,45
2016-04-16T02:05:31.411Z,45.09
2016-04-16T02:06:31.476Z,45.09
2016-04-16T02:07:31.511Z,45.18
2016-04-16T02:08:31.575Z,44.9
2016-04-16T02:09:31.625Z,45
2016-04-16T02:10:31.675Z,45
2016-04-16T02:11:31.725Z,45.28
2016-04-16T02:12:31.790Z,44.9
2016-04-16T02:13:31.823Z,45.28
2016-04-16T02:14:31.873Z,45.09
2016-04-16T02:15:31.922Z,45.37
2016-04-16T02:16:31.972Z,45.37
2016-04-16T02:17:32.021Z,45.11
2016-04-16T02:18:32.086Z,45.37
2016-04-16T02:19:32.136Z,45.37
2016-04-16T02:20:32.171Z,45.28
2016-04-16T02:21:32.235Z,45.59
2016-04-16T02:22:32.288Z,45.3
2016-04-16T02:23:32.337Z,45.4
2016-04-16T02:24:32.387Z,45.28
2016-04-16T02:25:32.435Z,45.3
2016-04-16T02:26:32.485Z,45.18
2016-04-16T02:27:32.535Z,45.28
2016-04-16T02:28:32.600Z,45.57
2016-04-16T02:29:32.635Z,45.5
2016-04-16T02:30:32.699Z,45.47
2016-04-16T02:31:32.734Z,45.28
2016-04-16T02:32:32.783Z,45.28
2016-04-16T02:33:32.926Z,45.37
2016-04-16T02:34:32.897Z,45.5
2016-04-16T02:35:32.947Z,45.68
2016-04-16T02:36:32.997Z,45.57
2016-04-16T02:37:33.047Z,45.57
2016-04-16T02:38:33.096Z,45.68
2016-04-16T02:39:33.145Z,46.45
2016-04-16T02:40:33.211Z,46.45
2016-04-16T02:41:33.244Z,46.07
2016-04-16T02:42:33.310Z,46.24
2016-04-16T02:43:33.358Z,45.78
2016-04-16T02:44:33.434Z,45.98
2016-04-16T02:45:33.542Z,46.14
2016-04-16T02:46:33.634Z,46.26
2016-04-16T02:47:33.711Z,46.07
2016-04-16T02:48:33.803Z,46.45
2016-04-16T02:49:33.900Z,46.05
2016-04-16T02:50:33.950Z,46.17
2016-04-16T02:51:34.014Z,45.95
2016-04-16T02:52:34.079Z,45.88
2016-04-16T02:53:34.176Z,46.26
2016-04-16T02:54:34.216Z,46.74
2016-04-16T02:55:34.255Z,46.07
2016-04-16T02:56:34.311Z,46.07
2016-04-16T02:57:34.381Z,45.88
2016-04-16T02:58:34.421Z,46.05
2016-04-16T02:59:34.472Z,46.55
2016-04-16T03:00:34.540Z,45.86
2016-04-16T03:01:34.575Z,45.88
2016-04-16T03:02:34.628Z,46.14
2016-04-16T03:03:34.710Z,46.24
2016-04-16T03:04:34.744Z,46.07
2016-04-16T03:05:34.905Z,45.86
2016-04-16T03:06:34.845Z,45.78
2016-04-16T03:07:34.896Z,45.98
2016-04-16T03:08:34.962Z,45.88
2016-04-16T03:09:34.996Z,45.68
2016-04-16T03:10:35.046Z,46.07
2016-04-16T03:11:35.112Z,46.17
2016-04-16T03:12:35.162Z,45.78
2016-04-16T03:13:35.212Z,45.78
2016-04-16T03:14:35.276Z,46.81
2016-04-16T03:15:35.342Z,46.62
2016-04-16T03:16:35.361Z,46.72
2016-04-16T03:17:35.425Z,46.17
2016-04-16T03:18:35.459Z,46.55
2016-04-16T03:19:35.524Z,46.36
2016-04-16T03:20:35.606Z,46.36
2016-04-16T03:21:35.608Z,46.45
2016-04-16T03:22:35.689Z,46.36
2016-04-16T03:23:35.722Z,46.94
2016-04-16T03:24:35.772Z,46.26
2016-04-16T03:25:35.837Z,46.45
2016-04-16T03:26:35.887Z,46.26
2016-04-16T03:27:35.936Z,46.84
2016-04-16T03:28:35.971Z,46.65
2016-04-16T03:29:36.036Z,46.36
2016-04-16T03:30:36.069Z,46.45
2016-04-16T03:31:36.135Z,47.03
2016-04-16T03:32:36.169Z,46.36
2016-04-16T03:33:36.249Z,46.55
2016-04-16T03:34:36.299Z,46.74
2016-04-16T03:35:36.270Z,46.36
2016-04-16T03:36:36.382Z,46.55
2016-04-16T03:37:36.448Z,46.84
2016-04-16T03:38:36.498Z,47.41
2016-04-16T03:39:36.531Z,47.13
2016-04-16T03:40:36.596Z,47.22
2016-04-16T03:41:36.631Z,47.32
2016-04-16T03:42:36.680Z,47.13
2016-04-16T03:43:36.746Z,47.13
2016-04-16T03:44:36.811Z,47.03
2016-04-16T03:45:36.860Z,47.03
2016-04-16T03:46:36.894Z,46.94
2016-04-16T03:47:36.944Z,46.74
2016-04-16T03:48:37.009Z,47.13
2016-04-16T03:49:37.058Z,47.03
2016-04-16T03:50:37.123Z,47.13
2016-04-16T03:51:37.157Z,47.13
2016-04-16T03:52:37.208Z,47.03
2016-04-16T03:53:37.256Z,46.84
2016-04-16T03:54:37.322Z,46.84
2016-04-16T03:55:37.371Z,47.03
2016-04-16T03:56:37.405Z,46.65
2016-04-16T03:57:37.455Z,47.51
2016-04-16T03:58:37.504Z,46.94
2016-04-16T03:59:37.569Z,46.84
2016-04-16T04:00:37.618Z,46.94
2016-04-16T04:01:37.652Z,46.65
2016-04-16T04:02:37.734Z,47.13
2016-04-16T04:03:37.783Z,47.41
2016-04-16T04:04:37.646Z,46.65
2016-04-16T04:05:37.960Z,47.41
2016-04-16T04:06:37.932Z,46.65
2016-04-16T04:07:37.965Z,46.84
2016-04-16T04:08:38.031Z,47.22
2016-04-16T04:09:38.081Z,47.2
2016-04-16T04:10:38.146Z,47.39
2016-04-16T04:11:38.180Z,47.41
2016-04-16T04:12:38.214Z,47.89
2016-04-16T04:13:38.295Z,47.41
2016-04-16T04:14:38.328Z,47.89
2016-04-16T04:15:38.378Z,47.41
2016-04-16T04:16:38.443Z,47.22
2016-04-16T04:17:38.508Z,47.22
2016-04-16T04:18:38.527Z,47.41
2016-04-16T04:19:38.592Z,47.22
2016-04-16T04:20:38.736Z,47.32
2016-04-16T04:21:38.676Z,47.51
2016-04-16T04:22:38.725Z,47.32
2016-04-16T04:23:38.806Z,47.41
2016-04-16T04:24:38.839Z,47.51
2016-04-16T04:25:38.889Z,47.51
2016-04-16T04:26:38.954Z,47.51
2016-04-16T04:27:39.004Z,47.13
2016-04-16T04:28:39.054Z,47.41
2016-04-16T04:29:39.103Z,47.99
2016-04-16T04:30:39.153Z,47.41
2016-04-16T04:31:39.187Z,47.61
2016-04-16T04:32:39.252Z,47.41
2016-04-16T04:33:39.301Z,47.61
2016-04-16T04:34:39.196Z,47.22
2016-04-16T04:35:39.416Z,47.51
2016-04-16T04:36:39.451Z,47.61
2016-04-16T04:37:39.516Z,47.51
2016-04-16T04:38:39.565Z,47.51
2016-04-16T04:39:39.599Z,47.8
2016-04-16T04:40:39.664Z,47.51
2016-04-16T04:41:39.714Z,47.51
2016-04-16T04:42:39.747Z,47.61
2016-04-16T04:43:39.813Z,47.61
2016-04-16T04:44:39.878Z,47.71
2016-04-16T04:45:39.912Z,47.99
2016-04-16T04:46:39.962Z,47.61
2016-04-16T04:47:40.026Z,47.61
2016-04-16T04:48:40.076Z,47.99
2016-04-16T04:49:40.125Z,47.89
2016-04-16T04:50:40.159Z,47.61
2016-04-16T04:51:40.225Z,47.61
2016-04-16T04:52:40.290Z,47.61
2016-04-16T04:53:40.325Z,47.71
2016-04-16T04:54:40.374Z,47.89
2016-04-16T04:55:40.439Z,47.89
2016-04-16T04:56:40.488Z,47.8
2016-04-16T04:57:40.522Z,47.89
2016-04-16T04:58:40.587Z,47.71
2016-04-16T04:59:40.638Z,47.8
2016-04-16T05:00:40.686Z,47.8
2016-04-16T05:01:40.736Z,47.8
2016-04-16T05:02:40.786Z,47.89
2016-04-16T05:03:40.851Z,47.99
2016-04-16T05:04:40.885Z,47.99
2016-04-16T05:05:40.934Z,47.89
2016-04-16T05:06:40.999Z,47.89
2016-04-16T05:07:41.049Z,48.18
2016-04-16T05:08:41.102Z,48.28
2016-04-16T05:09:41.151Z,47.89
2016-04-16T05:10:41.216Z,47.99
2016-04-16T05:11:41.234Z,48.57
2016-04-16T05:12:41.301Z,48.38
2016-04-16T05:13:41.349Z,48.47
2016-04-16T05:14:41.415Z,48.47
2016-04-16T05:15:41.465Z,48.57
2016-04-16T05:16:41.498Z,48.38
2016-04-16T05:17:41.578Z,48.54
2016-04-16T05:18:41.612Z,48.38
2016-04-16T05:19:41.647Z,48.57
2016-04-16T05:20:41.712Z,48.57
2016-04-16T05:21:41.762Z,48.57
2016-04-16T05:22:41.812Z,48.57
2016-04-16T05:23:41.845Z,48.28
2016-04-16T05:24:41.926Z,48.57
2016-04-16T05:25:41.961Z,48.18
2016-04-16T05:26:42.025Z,48.66
2016-04-16T05:27:42.058Z,48.47
2016-04-16T05:28:42.109Z,48.38
2016-04-16T05:29:42.174Z,48.47
2016-04-16T05:30:42.208Z,48.38
2016-04-16T05:31:42.258Z,48.38
2016-04-16T05:32:42.323Z,48.35
2016-04-16T05:33:42.357Z,48.38
2016-04-16T05:34:42.421Z,48.38
2016-04-16T05:35:42.487Z,48.57
2016-04-16T05:36:42.521Z,48.38
2016-04-16T05:37:42.571Z,48.38
2016-04-16T05:38:42.635Z,48.47
2016-04-16T05:39:42.669Z,48.38
2016-04-16T05:40:42.735Z,48.38
2016-04-16T05:41:42.769Z,48.47
2016-04-16T05:42:42.818Z,48.28
2016-04-16T05:43:42.884Z,48.38
2016-04-16T05:44:42.948Z,48.09
2016-04-16T05:45:42.982Z,48.28
2016-04-16T05:46:43.063Z,48.28
2016-04-16T05:47:43.097Z,48.38
2016-04-16T05:48:43.132Z,48.18
2016-04-16T05:49:43.228Z,48.28
2016-04-16T05:50:43.246Z,48.28
2016-04-16T05:51:43.280Z,48.95
2016-04-16T05:52:43.345Z,49.05
2016-04-16T05:53:43.395Z,48.38
2016-04-16T05:54:43.459Z,48.57
2016-04-16T05:55:43.509Z,48.66
2016-04-16T05:56:43.544Z,48.76
2016-04-16T05:57:43.608Z,48.38
2016-04-16T05:58:43.674Z,48.28
2016-04-16T05:59:43.691Z,48.28
2016-04-16T06:00:43.758Z,48.85
2016-04-16T06:01:43.807Z,48.66
2016-04-16T06:02:43.856Z,48.85
2016-04-16T06:03:43.890Z,48.95
2016-04-16T06:04:43.971Z,48.76
2016-04-16T06:05:44.005Z,48.76
2016-04-16T06:06:44.054Z,48.76
2016-04-16T06:07:44.135Z,48.85
2016-04-16T06:08:44.169Z,48.76
2016-04-16T06:09:44.203Z,48.85
2016-04-16T06:10:44.268Z,48.76
2016-04-16T06:11:44.334Z,48.66
2016-04-16T06:12:44.368Z,48.76
2016-04-16T06:13:44.433Z,48.66
2016-04-16T06:14:44.482Z,48.76
2016-04-16T06:15:44.516Z,48.76
2016-04-16T06:16:44.582Z,48.76
2016-04-16T06:17:44.632Z,48.76
2016-04-16T06:18:44.681Z,48.76
2016-04-16T06:19:44.731Z,48.76
2016-04-16T06:20:44.779Z,48.57
2016-04-16T06:21:44.689Z,48.76
2016-04-16T06:22:44.878Z,48.76
2016-04-16T06:23:44.929Z,48.66
2016-04-16T06:24:44.978Z,48.66
2016-04-16T06:25:45.043Z,48.76
2016-04-16T06:26:45.078Z,48.47
2016-04-16T06:27:45.127Z,48.57
2016-04-16T06:28:45.191Z,48.66
2016-04-16T06:29:45.226Z,48.66
2016-04-16T06:30:45.306Z,48.76
2016-04-16T06:31:45.341Z,48.38
2016-04-16T06:32:45.405Z,48.76
2016-04-16T06:33:45.455Z,48.76
2016-04-16T06:34:45.489Z,48.66
2016-04-16T06:35:45.538Z,48.66
2016-04-16T06:36:45.620Z,48.57
2016-04-16T06:37:45.638Z,48.83
2016-04-16T06:38:45.688Z,48.76
2016-04-16T06:39:45.768Z,48.85
2016-04-16T06:40:45.802Z,48.76
2016-04-16T06:41:45.852Z,48.76
2016-04-16T06:42:45.918Z,48.85
2016-04-16T06:43:45.952Z,48.57
2016-04-16T06:44:46.016Z,48.18
2016-04-16T06:45:46.051Z,48.76
2016-04-16T06:46:46.099Z,48.66
2016-04-16T06:47:46.165Z,48.66
2016-04-16T06:48:46.262Z,48.57
2016-04-16T06:49:46.248Z,48.57
2016-04-16T06:50:46.314Z,48.76
2016-04-16T06:51:46.379Z,48.76
2016-04-16T06:52:46.413Z,48.76
2016-04-16T06:53:46.478Z,48.38
2016-04-16T06:54:46.528Z,48.18
2016-04-16T06:55:46.562Z,48.76
2016-04-16T06:56:46.626Z,48.66
2016-04-16T06:57:46.661Z,48.57
2016-04-16T06:58:46.726Z,48.47
2016-04-16T06:59:46.806Z,48.18
2016-04-16T07:00:46.809Z,48.18
2016-04-16T07:01:46.890Z,48.95
2016-04-16T07:02:46.939Z,48.38
2016-04-16T07:03:46.974Z,48.28
2016-04-16T07:04:47.023Z,48.28
2016-04-16T07:05:47.088Z,48.38
2016-04-16T07:06:47.138Z,48.09
2016-04-16T07:07:47.172Z,48.38
2016-04-16T07:08:47.237Z,48.47
2016-04-16T07:09:47.302Z,49.05
2016-04-16T07:10:47.351Z,48.57
2016-04-16T07:11:47.386Z,48.76
2016-04-16T07:12:47.436Z,48.18
2016-04-16T07:13:47.500Z,48.76
2016-04-16T07:14:47.550Z,48.76
2016-04-16T07:15:47.584Z,48.38
2016-04-16T07:16:47.649Z,48.38
2016-04-16T07:17:47.683Z,48.18
2016-04-16T07:18:47.732Z,48.38
2016-04-16T07:19:47.798Z,48.28
2016-04-16T07:20:47.847Z,48.38
2016-04-16T07:21:48.084Z,48.28
2016-04-16T07:22:47.946Z,48.95
2016-04-16T07:23:48.011Z,48.76
2016-04-16T07:24:48.061Z,48.76
2016-04-16T07:25:48.095Z,48.57
2016-04-16T07:26:48.145Z,48.76
2016-04-16T07:27:48.209Z,48.57
2016-04-16T07:28:48.259Z,48.47
2016-04-16T07:29:48.309Z,48.57
2016-04-16T07:30:48.375Z,48.57
2016-04-16T07:31:48.425Z,48.85
2016-04-16T07:32:48.458Z,48.47
2016-04-16T07:33:48.523Z,48.85
2016-04-16T07:34:48.557Z,48.95
2016-04-16T07:35:48.622Z,49.15
2016-04-16T07:36:48.672Z,49.05
2016-04-16T07:37:48.721Z,48.85
2016-04-16T07:38:48.771Z,49.15
2016-04-16T07:39:48.835Z,49.05
2016-04-16T07:40:48.869Z,49.24
2016-04-16T07:41:48.936Z,49.15
2016-04-16T07:42:48.984Z,49.15
2016-04-16T07:43:49.018Z,49.15
2016-04-16T07:44:49.084Z,49.24
2016-04-16T07:45:49.133Z,49.33
2016-04-16T07:46:49.168Z,49.43
2016-04-16T07:47:49.233Z,49.43
2016-04-16T07:48:49.298Z,49.43
2016-04-16T07:49:49.332Z,49.43
2016-04-16T07:50:49.381Z,49.62
2016-04-16T07:51:49.446Z,49.52
2016-04-16T07:52:49.496Z,49.24
2016-04-16T07:53:49.530Z,48.85
2016-04-16T07:54:49.595Z,49.05
2016-04-16T07:55:49.660Z,49.15
2016-04-16T07:56:49.679Z,48.95
2016-04-16T07:57:49.760Z,49.05
2016-04-16T07:58:49.808Z,48.95
2016-04-16T07:59:49.842Z,49.43
2016-04-16T08:00:49.909Z,49.33
2016-04-16T08:01:49.942Z,49.15
2016-04-16T08:02:50.007Z,49.05
2016-04-16T08:03:50.056Z,49.15
2016-04-16T08:04:50.091Z,49.24
2016-04-16T08:05:50.172Z,49.15
2016-04-16T08:06:50.205Z,49.33
2016-04-16T08:07:50.239Z,49.43
2016-04-16T08:08:50.305Z,49.24
2016-04-16T08:09:50.370Z,49.33
2016-04-16T08:10:50.419Z,49.15
2016-04-16T08:11:50.453Z,49.52
2016-04-16T08:12:50.518Z,49.33
2016-04-16T08:13:50.568Z,49.52
2016-04-16T08:14:50.633Z,49.24
2016-04-16T08:15:50.667Z,49.33
2016-04-16T08:16:50.717Z,49.43
2016-04-16T08:17:50.771Z,49.24
2016-04-16T08:18:50.821Z,49.24
2016-04-16T08:19:50.871Z,49.17
2016-04-16T08:20:50.935Z,49.33
2016-04-16T08:21:50.969Z,49.52
2016-04-16T08:22:51.020Z,49.43
2016-04-16T08:23:51.084Z,49.33
2016-04-16T08:24:51.134Z,49.24
2016-04-16T08:25:51.183Z,49.26
2016-04-16T08:26:51.233Z,48.85
2016-04-16T08:27:51.267Z,49.33
2016-04-16T08:28:51.347Z,49.33
2016-04-16T08:29:51.381Z,49.33
2016-04-16T08:30:51.431Z,49.43
2016-04-16T08:31:51.497Z,49.33
2016-04-16T08:32:51.546Z,46.94
2016-04-16T08:33:51.595Z,46.55
2016-04-16T08:34:51.661Z,48.38
2016-04-16T08:35:51.694Z,48.85
2016-04-16T08:36:51.728Z,48.76
2016-04-16T08:37:51.810Z,48.38
2016-04-16T08:38:51.843Z,48.76
2016-04-16T08:39:51.908Z,48.76
2016-04-16T08:40:51.958Z,48.57
2016-04-16T08:41:52.007Z,48.76
2016-04-16T08:42:52.073Z,48.85
2016-04-16T08:43:52.107Z,48.76
2016-04-16T08:44:52.157Z,49.05
2016-04-16T08:45:52.222Z,49.05
2016-04-16T08:46:52.271Z,48.97
2016-04-16T08:47:52.305Z,49.15
2016-04-16T08:48:52.370Z,49.07
2016-04-16T08:49:52.420Z,49.46
2016-04-16T08:50:52.470Z,49.65
2016-04-16T08:51:52.519Z,47.44
2016-04-16T08:52:52.553Z,45.01
2016-04-16T08:53:52.634Z,44.65
2016-04-16T08:54:52.684Z,44.73
2016-04-16T08:55:52.717Z,44.27
2016-04-16T08:56:52.767Z,44.27
2016-04-16T08:57:52.831Z,44.06
2016-04-16T08:58:52.866Z,44.15
2016-04-16T08:59:52.914Z,43.98
2016-04-16T09:00:54.028Z,44.37
2016-04-16T09:01:53.952Z,43.98
2016-04-16T09:02:53.798Z,43.48
2016-04-16T09:03:53.817Z,43.29
2016-04-16T09:04:54.178Z,43.31
2016-04-16T09:05:53.806Z,43.21
2016-04-16T09:06:53.591Z,44.17
2016-04-16T09:07:54.297Z,45.01
2016-04-16T09:08:53.393Z,43.98
2016-04-16T09:09:53.442Z,44.17
2016-04-16T09:10:53.491Z,44.27
2016-04-16T09:11:53.604Z,44.46
2016-04-16T09:12:53.607Z,44.06
2016-04-16T09:13:53.640Z,43.6
2016-04-16T09:14:53.737Z,43.38
2016-04-16T09:15:53.755Z,43.67
2016-04-16T09:16:53.805Z,44.15
2016-04-16T09:17:53.839Z,44.17
2016-04-16T09:18:53.887Z,44.46
2016-04-16T09:19:53.968Z,44.17
2016-04-16T09:20:54.003Z,44.46
2016-04-16T09:21:54.053Z,44.54
2016-04-16T09:22:54.117Z,44.65
2016-04-16T09:23:54.168Z,44.65
2016-04-16T09:24:54.201Z,44.65
2016-04-16T09:25:54.298Z,44.46
2016-04-16T09:26:54.316Z,44.84
2016-04-16T09:27:54.350Z,44.94
2016-04-16T09:28:54.415Z,45.23
2016-04-16T09:29:54.481Z,44.94
2016-04-16T09:30:54.515Z,44.94
2016-04-16T09:31:54.564Z,44.75
2016-04-16T09:32:54.629Z,44.73
2016-04-16T09:33:54.678Z,44.46
2016-04-16T09:34:54.713Z,44.56
2016-04-16T09:35:54.777Z,44.84
2016-04-16T09:36:54.827Z,44.27
2016-04-16T09:37:54.861Z,44.37
2016-04-16T09:38:54.942Z,44.27
2016-04-16T09:39:55.008Z,44.17
2016-04-16T09:40:55.025Z,44.56
2016-04-16T09:41:55.091Z,43.98
2016-04-16T09:42:55.124Z,44.17
2016-04-16T09:43:55.205Z,44.24
2016-04-16T09:44:55.239Z,45.01
2016-04-16T09:45:55.288Z,44.73
2016-04-16T09:46:55.370Z,44.34
2016-04-16T09:47:55.466Z,44.08
2016-04-16T09:48:55.437Z,43.77
2016-04-16T09:49:55.518Z,43.7
2016-04-16T09:50:55.552Z,44.15
2016-04-16T09:51:55.587Z,44.08
2016-04-16T09:52:55.652Z,43.79
2016-04-16T09:53:55.717Z,43.5
2016-04-16T09:54:55.735Z,43.57
2016-04-16T09:55:55.815Z,43.67
2016-04-16T09:56:55.865Z,43.67
2016-04-16T09:57:55.915Z,43.38
2016-04-16T09:58:55.964Z,43.87
2016-04-16T09:59:55.998Z,43.96
2016-04-16T10:00:56.063Z,44.34
2016-04-16T10:01:56.114Z,44.54
2016-04-16T10:02:56.148Z,44.24
2016-04-16T10:03:56.197Z,44.15
2016-04-16T10:04:56.277Z,44.63
2016-04-16T10:05:56.311Z,44.54
2016-04-16T10:06:56.580Z,44.94
2016-04-16T10:07:56.427Z,44.24
2016-04-16T10:08:56.476Z,44.15
2016-04-16T10:09:56.525Z,43.67
2016-04-16T10:10:56.575Z,43.6
2016-04-16T10:11:56.453Z,42.83
2016-04-16T10:12:56.690Z,42.23
2016-04-16T10:13:56.724Z,42.71
2016-04-16T10:14:56.774Z,43
2016-04-16T10:15:56.855Z,42.23
2016-04-16T10:16:56.888Z,42.33
2016-04-16T10:17:56.922Z,42.23
2016-04-16T10:18:56.987Z,42.43
2016-04-16T10:19:57.037Z,42.9
2016-04-16T10:20:57.086Z,42.71
2016-04-16T10:21:57.073Z,42.61
2016-04-16T10:22:57.201Z,42.61
2016-04-16T10:23:57.235Z,42.81
2016-04-16T10:24:57.301Z,42.33
2016-04-16T10:25:57.350Z,42.43
2016-04-16T10:26:57.384Z,42.81
2016-04-16T10:27:57.433Z,42.71
2016-04-16T10:28:57.514Z,42.43
2016-04-16T10:29:57.531Z,42.43
2016-04-16T10:30:57.581Z,42.61
2016-04-16T10:31:57.662Z,43.1
2016-04-16T10:32:57.697Z,42.81
2016-04-16T10:33:57.761Z,43.38
2016-04-16T10:34:57.811Z,43
2016-04-16T10:35:57.845Z,43.29
2016-04-16T10:36:57.958Z,43
2016-04-16T10:37:57.945Z,42.71
2016-04-16T10:38:57.994Z,43.1
2016-04-16T10:39:58.075Z,42.81
2016-04-16T10:40:58.108Z,43.38
2016-04-16T10:41:58.158Z,43.48
2016-04-16T10:42:58.224Z,43
2016-04-16T10:43:58.274Z,43.19
2016-04-16T10:44:58.307Z,43.19
2016-04-16T10:45:58.372Z,42.23
2016-04-16T10:46:58.407Z,42.81
2016-04-16T10:47:58.487Z,42.33
2016-04-16T10:48:58.521Z,42.13
2016-04-16T10:49:58.554Z,42.43
2016-04-16T10:50:58.620Z,42.04
2016-04-16T10:51:58.669Z,42.23
2016-04-16T10:52:58.718Z,42.13
2016-04-16T10:53:58.784Z,42.33
2016-04-16T10:54:58.834Z,41.75
2016-04-16T10:55:58.867Z,40.89
2016-04-16T10:56:58.917Z,41.37
2016-04-16T10:57:58.982Z,42.6
2016-04-16T10:58:59.017Z,41.46
2016-04-16T10:59:59.098Z,41.27
2016-04-16T11:00:59.132Z,41.56
2016-04-16T11:01:59.197Z,42.61
2016-04-16T11:02:59.246Z,41.56
2016-04-16T11:03:59.280Z,41.25
2016-04-16T11:04:59.330Z,41.25
2016-04-16T11:05:59.394Z,41.27
2016-04-16T11:06:59.475Z,41.46
2016-04-16T11:07:59.478Z,41.46
2016-04-16T11:08:59.559Z,41.85
2016-04-16T11:09:59.594Z,41.44
2016-04-16T11:10:59.642Z,41.35
2016-04-16T11:11:59.708Z,41.54
2016-04-16T11:12:59.741Z,41.63
2016-04-16T11:13:59.791Z,42.33
2016-04-16T11:14:59.856Z,41.44
2016-04-16T11:15:59.905Z,41.66
2016-04-16T11:16:59.940Z,41.63
2016-04-16T11:18:00.005Z,41.93
2016-04-16T11:19:00.054Z,42.11
2016-04-16T11:20:00.088Z,42.21
2016-04-16T11:21:00.154Z,41.54
2016-04-16T11:22:00.235Z,41.54
2016-04-16T11:23:00.096Z,42.02
2016-04-16T11:24:00.302Z,42.4
2016-04-16T11:25:00.352Z,42.3
2016-04-16T11:26:00.417Z,41.63
2016-04-16T11:27:00.467Z,42.4
2016-04-16T11:28:00.501Z,42.5
2016-04-16T11:29:00.565Z,42.11
2016-04-16T11:30:00.615Z,42.4
2016-04-16T11:31:00.649Z,42.3
2016-04-16T11:32:00.715Z,42.11
2016-04-16T11:33:00.764Z,42.4
2016-04-16T11:34:00.814Z,42.3
2016-04-16T11:35:00.864Z,42.4
2016-04-16T11:36:00.928Z,42.5
2016-04-16T11:37:00.994Z,42.3
2016-04-16T11:38:01.028Z,42.43
2016-04-16T11:39:01.061Z,42.52
2016-04-16T11:40:01.111Z,42.21
2016-04-16T11:41:01.177Z,42.33
2016-04-16T11:42:01.225Z,42.23
2016-04-16T11:43:01.275Z,42.11
2016-04-16T11:44:01.341Z,42.21
2016-04-16T11:45:01.374Z,42.4
2016-04-16T11:46:01.424Z,41.75
2016-04-16T11:47:01.489Z,42.23
2016-04-16T11:48:01.538Z,42.21
2016-04-16T11:49:01.573Z,41.63
2016-04-16T11:50:01.638Z,41.35
2016-04-16T11:51:01.715Z,41.44
2016-04-16T11:52:01.856Z,41.83
2016-04-16T11:53:01.934Z,42.21
2016-04-16T11:54:01.996Z,42.21
2016-04-16T11:55:02.121Z,41.93
2016-04-16T11:56:02.188Z,41.44
2016-04-16T11:57:02.237Z,41.83
2016-04-16T11:58:02.318Z,42.4
2016-04-16T11:59:02.384Z,42.3
2016-04-16T12:00:02.433Z,42.4
2016-04-16T12:01:02.488Z,42.4
2016-04-16T12:02:02.576Z,42.4
2016-04-16T12:03:02.615Z,42.21
2016-04-16T12:04:02.686Z,42.02
2016-04-16T12:05:02.726Z,42.21
2016-04-16T12:06:02.792Z,42.5
2016-04-16T12:07:02.844Z,42.21
2016-04-16T12:08:02.881Z,42.02
2016-04-16T12:09:02.776Z,42.3
2016-04-16T12:10:03.001Z,42.3
2016-04-16T12:11:03.035Z,42.21
2016-04-16T12:12:03.102Z,42.3
2016-04-16T12:13:03.151Z,41.73
2016-04-16T12:14:03.186Z,41.44
2016-04-16T12:15:03.268Z,41.63
2016-04-16T12:16:03.318Z,42.11
2016-04-16T12:17:03.352Z,42.11
2016-04-16T12:18:03.418Z,42.11
2016-04-16T12:19:03.452Z,42.3
2016-04-16T12:20:03.503Z,42.23
2016-04-16T12:21:03.583Z,42.21
2016-04-16T12:22:03.601Z,42.02
2016-04-16T12:23:03.650Z,42.21
2016-04-16T12:24:03.731Z,42.4
2016-04-16T12:25:03.766Z,40.87
2016-04-16T12:26:03.800Z,40.77
2016-04-16T12:27:03.880Z,40.87
2016-04-16T12:28:03.914Z,40.87
2016-04-16T12:29:03.980Z,41.35
2016-04-16T12:30:04.013Z,40.67
2016-04-16T12:31:04.063Z,41.06
2016-04-16T12:32:04.144Z,41.16
2016-04-16T12:33:04.178Z,41.06
2016-04-16T12:34:04.227Z,41.25
2016-04-16T12:35:04.292Z,41.44
2016-04-16T12:36:04.327Z,41.35
2016-04-16T12:37:04.360Z,41.35
2016-04-16T12:38:04.426Z,41.35
2016-04-16T12:39:04.491Z,41.25
2016-04-16T12:40:04.524Z,40.87
2016-04-16T12:41:04.574Z,41.16
2016-04-16T12:42:04.624Z,41.06
2016-04-16T12:43:04.689Z,41.16
2016-04-16T12:44:04.738Z,41.54
2016-04-16T12:45:04.773Z,41.35
2016-04-16T12:46:04.837Z,41.44
2016-04-16T12:47:04.903Z,41.73
2016-04-16T12:48:04.920Z,41.73
2016-04-16T12:49:04.987Z,42.3
2016-04-16T12:50:05.036Z,42.21
2016-04-16T12:51:05.086Z,42.21
2016-04-16T12:52:05.135Z,42.5
2016-04-16T12:53:05.200Z,42.69
2016-04-16T12:54:05.234Z,42.3
2016-04-16T12:55:05.283Z,42.4
2016-04-16T12:56:05.349Z,42.3